.
WxDataArchive / Data Records for 2016-01-05
2016-01-04 January 2016 2016-01-06

Data Records for Tuesday, 05 January 2016

Time	Temp	Chill	HIndex	Humid	Dewpt	 Wind 	HiWind	WindDir	Rain 	Barom
-----	----	-----	------	-----	-----	------	------	-------	-----	-----
00:00	19.2	19.2	19.2	81	14.3	0	1	112	0.00	30.603 
00:05	19.1	19.1	19.1	81	14.2	0	1	112	0.00	30.603 
00:10	18.9	18.9	18.9	81	14.1	0	1	112	0.00	30.603 
00:15	18.9	18.9	18.9	81	14.1	0	3	112	0.00	30.601 
00:20	18.8	18.8	18.8	81	14.0	0	2	112	0.00	30.601 
00:25	18.6	18.6	18.6	81	13.8	1	2	112	0.00	30.601 
00:30	18.6	18.6	18.6	80	13.5	1	4	112	0.00	30.599 
00:35	18.4	18.4	18.4	80	13.3	0	2	112	0.00	30.599 
00:40	18.1	18.1	18.1	79	12.7	0	3	112	0.00	30.599 
00:45	18.0	18.0	18.0	79	12.6	0	2	112	0.00	30.595 
00:50	17.8	17.8	17.8	79	12.4	0	1	112	0.00	30.595 
00:55	17.7	17.7	17.7	79	12.3	0	1	112	0.00	30.595 
01:00	17.5	17.5	17.5	79	12.1	0	2	112	0.00	30.594 
01:05	17.3	17.3	17.3	80	12.2	0	2	112	0.00	30.594 
01:10	17.2	17.2	17.2	80	12.1	0	2	112	0.00	30.594 
01:15	17.0	17.0	17.0	80	11.9	0	1	112	0.00	30.592 
01:20	17.0	17.0	17.0	80	11.9	0	0	---	0.00	30.592 
01:25	16.9	16.9	16.9	80	11.8	0	0	---	0.00	30.592 
01:30	16.7	16.7	16.7	80	11.6	0	0	---	0.00	30.593 
01:35	16.5	16.5	16.5	80	11.4	0	0	---	0.00	30.593 
01:40	16.4	16.4	16.4	80	11.3	0	0	---	0.00	30.593 
01:45	16.4	16.4	16.4	80	11.3	0	1	112	0.00	30.595 
01:50	16.2	16.2	16.2	80	11.1	0	0	---	0.00	30.595 
01:55	16.1	16.1	16.1	80	11.0	0	0	---	0.00	30.595 
02:00	16.1	16.1	16.1	80	11.0	0	0	---	0.00	30.594 
02:05	15.9	15.9	15.9	81	11.1	0	0	---	0.00	30.594 
02:10	15.9	15.9	15.9	81	11.1	0	0	---	0.00	30.594 
02:15	15.7	15.7	15.7	81	10.9	0	1	112	0.00	30.590 
02:20	15.7	15.7	15.7	81	10.9	0	1	112	0.00	30.590 
02:25	15.7	15.7	15.7	81	10.9	0	1	112	0.00	30.590 
02:30	15.7	15.7	15.7	81	10.9	0	1	112	0.00	30.586 
02:35	15.7	15.7	15.7	81	10.9	0	1	112	0.00	30.586 
02:40	15.7	15.7	15.7	81	10.9	0	2	112	0.00	30.586 
02:45	15.7	15.7	15.7	81	10.9	0	1	112	0.00	30.593 
02:50	15.7	15.7	15.7	81	10.9	0	0	---	0.00	30.593 
02:55	15.6	15.6	15.6	80	10.6	0	0	---	0.00	30.593 
03:00	15.6	15.6	15.6	80	10.6	0	0	---	0.00	30.597 
03:05	15.4	15.4	15.4	80	10.4	0	0	---	0.00	30.597 
03:10	15.4	15.4	15.4	80	10.4	0	0	---	0.00	30.597 
03:15	15.2	15.2	15.2	80	10.2	0	0	---	0.00	30.600 
03:20	15.1	15.1	15.1	80	10.1	0	0	---	0.00	30.600 
03:25	14.9	14.9	14.9	80	9.9	0	0	---	0.00	30.600 
03:30	14.8	14.8	14.8	80	9.8	0	0	---	0.00	30.599 
03:35	14.6	14.6	14.6	80	9.6	0	0	---	0.00	30.599 
03:40	14.6	14.6	14.6	81	9.9	0	1	112	0.00	30.599 
03:45	14.8	14.8	14.8	81	10.0	0	1	112	0.00	30.599 
03:50	14.8	14.8	14.8	81	10.0	0	1	112	0.00	30.599 
03:55	14.8	14.8	14.8	81	10.0	0	1	112	0.00	30.599 
04:00	14.8	14.8	14.8	80	9.8	0	0	---	0.00	30.597 
04:05	14.6	14.6	14.6	80	9.6	0	0	---	0.00	30.597 
04:10	14.6	14.6	14.6	80	9.6	0	0	---	0.00	30.597 
04:15	14.4	14.4	14.4	80	9.4	0	0	---	0.00	30.602 
04:20	14.1	14.1	14.1	80	9.1	0	0	---	0.00	30.602 
04:25	14.0	14.0	14.0	80	9.0	0	0	---	0.00	30.602 
04:30	13.8	13.8	13.8	80	8.8	0	0	---	0.00	30.600 
04:35	13.8	13.8	13.8	80	8.8	0	0	---	0.00	30.600 
04:40	13.6	13.6	13.6	80	8.6	0	0	---	0.00	30.600 
04:45	13.5	13.5	13.5	80	8.5	0	0	---	0.00	30.604 
04:50	13.3	13.3	13.3	81	8.6	0	0	---	0.00	30.604 
04:55	13.1	13.1	13.1	81	8.4	0	0	---	0.00	30.604 
05:00	12.9	12.9	12.9	81	8.2	0	0	---	0.00	30.604 
05:05	12.8	12.8	12.8	81	8.1	0	0	---	0.00	30.604 
05:10	12.6	12.6	12.6	81	7.9	0	0	---	0.00	30.604 
05:15	12.6	12.6	12.6	81	7.9	0	0	---	0.00	30.611 
05:20	12.4	12.4	12.4	81	7.7	0	0	---	0.00	30.611 
05:25	12.3	12.3	12.3	81	7.6	0	0	---	0.00	30.611 
05:30	12.1	12.1	12.1	81	7.4	0	0	---	0.00	30.617 
05:35	11.9	11.9	11.9	81	7.2	0	0	---	0.00	30.617 
05:40	11.9	11.9	11.9	81	7.2	0	0	---	0.00	30.617 
05:45	11.9	11.9	11.9	82	7.5	0	0	---	0.00	30.619 
05:50	11.7	11.7	11.7	82	7.3	0	0	---	0.00	30.619 
05:55	11.7	11.7	11.7	82	7.3	0	0	---	0.00	30.619 
06:00	11.6	11.6	11.6	82	7.2	0	0	---	0.00	30.621 
06:05	11.6	11.6	11.6	82	7.2	0	0	---	0.00	30.621 
06:10	11.4	11.4	11.4	82	7.0	0	0	---	0.00	30.621 
06:15	11.2	11.2	11.2	82	6.8	0	0	---	0.00	30.622 
06:20	11.2	11.2	11.2	83	7.1	0	0	---	0.00	30.622 
06:25	11.4	11.4	11.4	83	7.3	0	0	---	0.00	30.622 
06:30	11.4	11.4	11.4	83	7.3	0	0	---	0.00	30.623 
06:35	11.4	11.4	11.4	83	7.3	0	0	---	0.00	30.623 
06:40	11.2	11.2	11.2	83	7.1	0	0	---	0.00	30.623 
06:45	11.2	11.2	11.2	84	7.3	0	0	---	0.00	30.628 
06:50	11.2	11.2	11.2	84	7.3	0	0	---	0.00	30.628 
06:55	11.2	11.2	11.2	84	7.3	0	0	---	0.00	30.628 
07:00	11.1	11.1	11.1	84	7.2	0	0	---	0.00	30.626 
07:05	11.1	11.1	11.1	84	7.2	0	0	---	0.00	30.626 
07:10	10.9	10.9	10.9	84	7.0	0	0	---	0.00	30.626 
07:15	10.9	10.9	10.9	84	7.0	0	0	---	0.00	30.633 
07:20	10.7	10.7	10.7	84	6.8	0	0	---	0.00	30.633 
07:25	10.7	10.7	10.7	84	6.8	0	0	---	0.00	30.633 
07:30	10.7	10.7	10.7	84	6.8	0	0	---	0.00	30.636 
07:35	10.7	10.7	10.7	84	6.8	0	0	---	0.00	30.636 
07:40	10.7	10.7	10.7	84	6.8	0	0	---	0.00	30.636 
07:45	10.7	10.7	10.7	84	6.8	0	0	---	0.00	30.637 
07:50	10.7	10.7	10.7	84	6.8	0	0	---	0.00	30.637 
07:55	10.9	10.9	10.9	84	7.0	0	0	---	0.00	30.637 
08:00	10.9	10.9	10.9	84	7.0	0	0	---	0.00	30.638 
08:05	10.9	10.9	10.9	84	7.0	0	0	---	0.00	30.638 
08:10	10.9	10.9	10.9	84	7.0	0	0	---	0.00	30.638 
08:15	10.9	10.9	10.9	84	7.0	0	0	---	0.00	30.641 
08:20	10.7	10.7	10.7	84	6.8	0	0	---	0.00	30.641 
08:25	10.9	10.9	10.9	85	7.3	0	0	---	0.00	30.641 
08:30	11.1	11.1	11.1	85	7.5	0	0	---	0.00	30.639 
08:35	11.1	11.1	11.1	85	7.5	0	0	---	0.00	30.639 
08:40	11.2	11.2	11.2	85	7.6	0	0	---	0.00	30.639 
08:45	11.6	11.6	11.6	85	8.0	0	0	---	0.00	30.641 
08:50	11.7	11.7	11.7	85	8.1	0	0	---	0.00	30.641 
08:55	11.9	11.9	11.9	86	8.5	0	1	112	0.00	30.641 
09:00	12.6	12.6	12.6	86	9.2	0	0	---	0.00	30.644 
09:05	13.3	13.3	13.3	87	10.2	0	1	112	0.00	30.644 
09:10	14.1	14.1	14.1	87	11.0	0	2	112	0.00	30.644 
09:15	14.8	14.8	14.8	87	11.6	0	1	112	0.00	30.648 
09:20	15.4	15.4	15.4	86	12.0	0	2	112	0.00	30.648 
09:25	15.9	15.9	15.9	86	12.5	0	1	112	0.00	30.648 
09:30	16.5	16.5	16.5	86	13.1	0	1	112	0.00	30.646 
09:35	17.0	17.0	17.0	85	13.3	1	2	112	0.00	30.646 
09:40	17.7	17.7	17.7	83	13.4	1	4	112	0.00	30.646 
09:45	18.0	18.0	18.0	81	13.2	1	3	112	0.00	30.645 
09:50	18.3	18.3	18.3	81	13.5	1	4	112	0.00	30.645 
09:55	18.6	18.6	18.6	80	13.5	1	2	90	0.00	30.645 
10:00	18.9	18.9	18.9	78	13.2	1	3	90	0.00	30.650 
10:05	19.2	19.2	19.2	77	13.2	1	3	112	0.00	30.650 
10:10	19.5	19.5	19.5	76	13.2	1	4	112	0.00	30.650 
10:15	19.9	19.9	19.9	76	13.6	0	3	90	0.00	30.652 
10:20	20.2	20.2	20.2	74	13.3	1	4	90	0.00	30.652 
10:25	20.5	20.5	20.5	74	13.6	1	5	112	0.00	30.652 
10:30	20.6	20.6	20.6	73	13.3	1	5	90	0.00	30.658 
10:35	21.1	21.1	21.1	73	13.8	0	2	90	0.00	30.658 
10:40	21.3	21.3	21.3	72	13.7	1	4	248	0.00	30.658 
10:45	21.4	21.4	21.4	71	13.5	1	3	90	0.00	30.659 
10:50	21.6	21.6	21.6	71	13.7	1	4	90	0.00	30.659 
10:55	21.9	21.9	21.9	70	13.6	2	6	112	0.00	30.659 
11:00	21.9	21.9	21.9	69	13.3	1	4	90	0.00	30.658 
11:05	22.2	22.2	22.2	70	13.9	0	2	68	0.00	30.658 
11:10	22.4	22.4	22.4	69	13.8	0	2	68	0.00	30.658 
11:15	22.7	22.7	22.7	68	13.8	0	3	68	0.00	30.650 
11:20	22.9	22.9	22.9	68	13.9	1	3	68	0.00	30.650 
11:25	23.0	23.0	23.0	67	13.7	1	4	68	0.00	30.650 
11:30	23.3	23.3	23.3	67	14.0	0	3	90	0.00	30.645 
11:35	23.6	23.6	23.6	67	14.3	0	3	90	0.00	30.645 
11:40	23.8	23.8	23.8	65	13.8	1	4	90	0.00	30.645 
11:45	23.9	23.9	23.9	64	13.5	0	2	90	0.00	30.641 
11:50	23.9	23.9	23.9	63	13.2	1	3	225	0.00	30.641 
11:55	24.1	24.1	24.1	62	13.0	1	3	225	0.00	30.641 
12:00	24.2	24.2	24.2	63	13.4	1	4	112	0.00	30.629 
12:05	24.2	24.2	24.2	63	13.4	1	6	112	0.00	30.629 
12:10	24.5	24.5	24.5	62	13.4	0	2	112	0.00	30.629 
12:15	24.8	24.8	24.8	62	13.7	0	2	112	0.00	30.623 
12:20	25.1	25.1	25.1	62	13.9	0	1	112	0.00	30.623 
12:25	25.3	25.3	25.3	62	14.1	0	1	112	0.00	30.623 
12:30	25.4	25.4	25.4	61	13.9	0	4	112	0.00	30.611 
12:35	25.7	25.7	25.7	62	14.5	1	4	68	0.00	30.611 
12:40	25.8	25.8	25.8	61	14.2	1	4	90	0.00	30.611 
12:45	25.8	25.8	25.8	60	13.9	1	5	112	0.00	30.598 
12:50	26.0	26.0	26.0	62	14.8	1	4	90	0.00	30.598 
12:55	26.1	26.1	26.1	60	14.1	2	7	90	0.00	30.598 
13:00	26.3	26.3	26.3	60	14.3	0	3	90	0.00	30.589 
13:05	26.4	26.4	26.4	59	14.0	1	5	90	0.00	30.589 
13:10	26.7	26.7	26.7	59	14.3	0	2	112	0.00	30.589 
13:15	27.0	27.0	27.0	58	14.2	1	4	112	0.00	30.582 
13:20	27.0	27.0	27.0	58	14.2	1	3	112	0.00	30.582 
13:25	27.2	27.2	27.2	58	14.4	1	3	112	0.00	30.582 
13:30	27.5	27.5	27.5	58	14.7	1	3	112	0.00	30.573 
13:35	27.6	27.6	27.6	57	14.4	0	3	112	0.00	30.573 
13:40	27.6	27.6	27.6	56	14.0	0	4	112	0.00	30.573 
13:45	27.6	27.6	27.6	56	14.0	1	6	112	0.00	30.562 
13:50	27.6	27.6	27.6	55	13.6	1	3	112	0.00	30.562 
13:55	28.1	28.1	28.1	55	14.0	0	2	112	0.00	30.562 
14:00	28.2	28.2	28.2	54	13.7	0	3	112	0.00	30.559 
14:05	28.5	28.5	28.5	54	14.0	0	2	112	0.00	30.559 
14:10	28.7	28.7	28.7	54	14.2	0	5	112	0.00	30.559 
14:15	28.8	28.8	28.8	55	14.7	0	5	90	0.00	30.549 
14:20	29.0	29.0	29.0	54	14.5	0	2	90	0.00	30.549 
14:25	29.0	29.0	29.0	53	14.0	0	2	90	0.00	30.549 
14:30	29.1	29.1	29.1	53	14.1	0	1	90	0.00	30.547 
14:35	29.3	29.3	29.3	54	14.7	1	4	68	0.00	30.547 
14:40	29.1	29.1	29.1	54	14.6	1	3	112	0.00	30.547 
14:45	29.1	29.1	29.1	54	14.6	1	4	112	0.00	30.539 
14:50	29.4	29.4	29.4	54	14.8	0	2	112	0.00	30.539 
14:55	29.4	29.4	29.4	53	14.4	0	2	112	0.00	30.539 
15:00	29.4	29.4	29.4	53	14.4	0	4	112	0.00	30.532 
15:05	29.4	29.4	29.4	53	14.4	1	4	112	0.00	30.532 
15:10	29.4	29.4	29.4	53	14.4	0	2	112	0.00	30.532 
15:15	29.4	29.4	29.4	53	14.4	0	3	112	0.00	30.529 
15:20	29.5	29.5	29.5	53	14.5	0	2	112	0.00	30.529 
15:25	29.5	29.5	29.5	52	14.1	0	2	112	0.00	30.529 
15:30	29.5	29.5	29.5	52	14.1	0	3	112	0.00	30.524 
15:35	29.7	29.7	29.7	52	14.3	1	3	112	0.00	30.524 
15:40	29.7	29.7	29.7	53	14.7	0	1	112	0.00	30.524 
15:45	29.5	29.5	29.5	53	14.5	1	3	112	0.00	30.519 
15:50	29.5	29.5	29.5	54	14.9	0	3	112	0.00	30.519 
15:55	29.5	29.5	29.5	52	14.1	0	2	112	0.00	30.519 
16:00	29.5	29.5	29.5	52	14.1	0	3	90	0.00	30.516 
16:05	29.5	29.5	29.5	51	13.6	1	5	90	0.00	30.516 
16:10	29.4	29.4	29.4	52	14.0	1	5	90	0.00	30.516 
16:15	29.4	29.4	29.4	51	13.5	0	2	90	0.00	30.517 
16:20	29.4	29.4	29.4	52	14.0	0	2	90	0.00	30.517 
16:25	29.3	29.3	29.3	51	13.4	1	3	90	0.00	30.517 
16:30	29.1	29.1	29.1	52	13.7	0	2	90	0.00	30.516 
16:35	29.0	29.0	29.0	53	14.0	0	1	90	0.00	30.516 
16:40	28.8	28.8	28.8	53	13.9	0	1	90	0.00	30.516 
16:45	28.7	28.7	28.7	53	13.8	0	2	90	0.00	30.512 
16:50	28.5	28.5	28.5	53	13.6	0	2	90	0.00	30.512 
16:55	28.5	28.5	28.5	53	13.6	0	2	90	0.00	30.512 
17:00	28.4	28.4	28.4	53	13.5	0	2	90	0.00	30.508 
17:05	28.4	28.4	28.4	53	13.5	0	1	90	0.00	30.508 
17:10	28.2	28.2	28.2	53	13.3	0	2	90	0.00	30.508 
17:15	28.1	28.1	28.1	54	13.6	0	1	90	0.00	30.505 
17:20	27.9	27.9	27.9	54	13.4	0	1	90	0.00	30.505 
17:25	27.8	27.8	27.8	54	13.3	0	1	90	0.00	30.505 
17:30	27.6	27.6	27.6	55	13.6	0	2	90	0.00	30.503 
17:35	27.5	27.5	27.5	55	13.5	0	1	90	0.00	30.503 
17:40	27.2	27.2	27.2	56	13.6	0	0	---	0.00	30.503 
17:45	26.9	26.9	26.9	56	13.3	0	0	---	0.00	30.502 
17:50	26.6	26.6	26.6	57	13.4	0	0	---	0.00	30.502 
17:55	26.1	26.1	26.1	58	13.4	0	0	---	0.00	30.502 
18:00	25.7	25.7	25.7	58	13.0	0	1	90	0.00	30.493 
18:05	25.6	25.6	25.6	59	13.3	0	0	---	0.00	30.493 
18:10	25.4	25.4	25.4	60	13.5	0	0	---	0.00	30.493 
18:15	25.3	25.3	25.3	60	13.4	0	0	---	0.00	30.492 
18:20	25.0	25.0	25.0	61	13.5	0	0	---	0.00	30.492 
18:25	24.8	24.8	24.8	62	13.7	0	0	---	0.00	30.492 
18:30	24.7	24.7	24.7	63	13.9	0	0	---	0.00	30.491 
18:35	24.5	24.5	24.5	64	14.1	0	0	---	0.00	30.491 
18:40	24.4	24.4	24.4	65	14.3	0	0	---	0.00	30.491 
18:45	24.1	24.1	24.1	65	14.1	0	0	---	0.00	30.491 
18:50	23.9	23.9	23.9	66	14.2	0	0	---	0.00	30.491 
18:55	23.8	23.8	23.8	66	14.1	0	0	---	0.00	30.491 
19:00	23.5	23.5	23.5	67	14.2	0	0	---	0.00	30.491 
19:05	23.2	23.2	23.2	68	14.2	0	0	---	0.00	30.491 
19:10	22.9	22.9	22.9	69	14.3	0	0	---	0.00	30.491 
19:15	22.7	22.7	22.7	69	14.1	0	0	---	0.00	30.489 
19:20	22.4	22.4	22.4	69	13.8	0	0	---	0.00	30.489 
19:25	22.2	22.2	22.2	70	13.9	0	0	---	0.00	30.489 
19:30	22.1	22.1	22.1	71	14.2	0	0	---	0.00	30.488 
19:35	22.1	22.1	22.1	71	14.2	0	0	---	0.00	30.488 
19:40	22.1	22.1	22.1	72	14.5	0	0	---	0.00	30.488 
19:45	21.9	21.9	21.9	72	14.3	0	0	---	0.00	30.485 
19:50	21.9	21.9	21.9	72	14.3	0	0	---	0.00	30.485 
19:55	21.9	21.9	21.9	73	14.6	0	0	---	0.00	30.485 
20:00	22.1	22.1	22.1	72	14.5	0	0	---	0.00	30.483 
20:05	21.9	21.9	21.9	72	14.3	0	0	---	0.00	30.483 
20:10	21.9	21.9	21.9	72	14.3	0	0	---	0.00	30.483 
20:15	21.9	21.9	21.9	72	14.3	0	0	---	0.00	30.480 
20:20	21.9	21.9	21.9	73	14.6	0	0	---	0.00	30.480 
20:25	21.9	21.9	21.9	73	14.6	0	0	---	0.00	30.480 
20:30	21.9	21.9	21.9	73	14.6	0	0	---	0.00	30.478 
20:35	21.9	21.9	21.9	73	14.6	0	0	---	0.00	30.478 
20:40	22.1	22.1	22.1	73	14.8	0	0	---	0.00	30.478 
20:45	22.1	22.1	22.1	73	14.8	0	0	---	0.00	30.477 
20:50	22.1	22.1	22.1	73	14.8	0	0	---	0.00	30.477 
20:55	22.2	22.2	22.2	72	14.6	0	0	---	0.00	30.477 
21:00	22.2	22.2	22.2	72	14.6	0	0	---	0.00	30.476 
21:05	22.2	22.2	22.2	72	14.6	0	0	---	0.00	30.476 
21:10	22.2	22.2	22.2	71	14.3	0	0	---	0.00	30.476 
21:15	22.2	22.2	22.2	71	14.3	0	0	---	0.00	30.471 
21:20	22.2	22.2	22.2	71	14.3	0	0	---	0.00	30.471 
21:25	22.2	22.2	22.2	71	14.3	0	0	---	0.00	30.471 
21:30	22.2	22.2	22.2	70	13.9	0	0	---	0.00	30.472 
21:35	22.1	22.1	22.1	70	13.8	0	0	---	0.00	30.472 
21:40	21.9	21.9	21.9	70	13.6	0	0	---	0.00	30.472 
21:45	21.9	21.9	21.9	70	13.6	0	0	---	0.00	30.469 
21:50	21.8	21.8	21.8	70	13.5	0	0	---	0.00	30.469 
21:55	21.6	21.6	21.6	70	13.4	0	0	---	0.00	30.469 
22:00	21.3	21.3	21.3	71	13.4	0	0	---	0.00	30.467 
22:05	21.0	21.0	21.0	71	13.1	0	0	---	0.00	30.467 
22:10	20.8	20.8	20.8	72	13.2	0	0	---	0.00	30.467 
22:15	20.6	20.6	20.6	72	13.0	0	0	---	0.00	30.467 
22:20	20.5	20.5	20.5	72	12.9	0	0	---	0.00	30.467 
22:25	20.3	20.3	20.3	72	12.7	0	0	---	0.00	30.467 
22:30	20.2	20.2	20.2	72	12.6	0	0	---	0.00	30.463 
22:35	20.0	20.0	20.0	73	12.8	0	0	---	0.00	30.463 
22:40	19.9	19.9	19.9	73	12.7	0	0	---	0.00	30.463 
22:45	19.7	19.7	19.7	73	12.5	0	0	---	0.00	30.460 
22:50	19.5	19.5	19.5	73	12.3	0	0	---	0.00	30.460 
22:55	19.5	19.5	19.5	73	12.3	0	0	---	0.00	30.460 
23:00	19.9	19.9	19.9	74	13.0	0	1	90	0.00	30.456 
23:05	20.2	20.2	20.2	74	13.3	0	1	90	0.00	30.456 
23:10	20.5	20.5	20.5	74	13.6	0	1	90	0.00	30.456 
23:15	21.0	21.0	21.0	73	13.7	0	1	90	0.00	30.454 
23:20	21.1	21.1	21.1	72	13.5	0	0	---	0.00	30.454 
23:25	21.4	21.4	21.4	72	13.8	0	0	---	0.00	30.454 
23:30	21.3	21.3	21.3	71	13.4	0	0	---	0.00	30.455 
23:35	21.3	21.3	21.3	71	13.4	0	0	---	0.00	30.455 
23:40	21.1	21.1	21.1	71	13.2	0	0	---	0.00	30.455 
23:45	20.8	20.8	20.8	71	12.9	0	0	---	0.00	30.453 
23:50	20.5	20.5	20.5	71	12.6	0	0	---	0.00	30.453 
23:55	20.3	20.3	20.3	71	12.4	0	0	---	0.00	30.453 

CoCoRaHS
IN-AL-39
A2 Web Hosting
Creative Commons License
GoDaddy
search engine by freefind advanced

loaded 2018-11-12 14:49:31 • last modified 2010-11-18 10:43:29
Privacy PolicyDisclaimer
• wx.awcolley.com is powered by PmWiki v.2002016 •
• all content (unless otherwise noted) © 2018 A W Colley